Terminal Aerodrome Forecast
Issued by NWS Twin Cities, MN

Home | Current Version | Previous Version | Text Only | Print | Product List | Glossary On
Versions: 1 2 3 4 5 6 7 8 9 10 11 12 13 14 15 16 17 18 19 20 21 22 23 24 25 26 27 28 29 30 31 32 33 34 35 36 37 38 39 40 41 42 43 44 45 46
000
FTUS43 KMPX 221720
TAFMSP
TAF
KMSP 221720Z 2218/2324 05014G25KT 3SM -RASN BR BKN010 OVC035
     FM222000 02015G23KT 2SM -DZ BR OVC005
     FM230000 01013G20KT 5SM -DZ BR OVC007
     FM230300 36012G19KT P6SM OVC012
     FM231300 33011KT P6SM BKN013
     FM232300 30009KT P6SM SCT120=

USA.gov is the U.S. government's official web portal to all federal, state and local government web resources and services.